Time;durP1;ratioP1;P1;durP2;ratioP2;P2;SDS_P1;SDS_P2;PMS_P1;PMS_P2;Temp;Humidity;BMP_temperature;BMP_pressure;BME280_temperature;BME280_humidity;BME280_pressure;Samples;Min_cycle;Max_cycle;Signal;HPM_P1;HPM_P2
2021/01/12 00:02:26;;;;;;;24.07;14.70;;;;;;;-1.71;94.32;98575.00;1687226;84;21080;-63
2021/01/12 00:04:53;;;;;;;21.20;12.63;;;;;;;-1.70;94.36;98576.68;1687800;84;21144;-63
2021/01/12 00:07:24;;;;;;;22.75;14.60;;;;;;;-1.70;94.45;98557.92;1683057;85;21279;-63
2021/01/12 00:09:51;;;;;;;23.67;13.98;;;;;;;-1.70;94.45;98557.92;1687016;84;21223;-63
2021/01/12 00:12:18;;;;;;;;;;;;;;;-1.72;94.22;98551.54;1686878;85;21139;-62
2021/01/12 00:14:47;;;;;;;21.50;14.38;;;;;;;-1.72;94.18;98547.70;1687088;84;21750;-62
2021/01/12 00:17:15;;;;;;;20.23;13.60;;;;;;;-1.72;94.27;98555.38;1687382;84;21160;-63
2021/01/12 00:19:43;;;;;;;20.52;13.70;;;;;;;-1.74;94.21;98548.16;1686668;85;21277;-62
2021/01/12 00:22:17;;;;;;;;;;;;;;;-1.75;94.14;98546.48;1689224;85;21217;-62
2021/01/12 00:24:49;;;;;;;20.43;13.68;;;;;;;-1.75;94.22;98550.31;1684493;84;20237;-62
2021/01/12 00:27:22;;;;;;;21.45;14.35;;;;;;;-1.75;94.18;98534.96;1689391;84;21650;-62
2021/01/12 00:29:51;;;;;;;20.57;13.93;;;;;;;-1.74;94.27;98535.36;1686674;84;21259;-62
2021/01/12 00:32:28;;;;;;;26.27;15.00;;;;;;;-1.73;94.19;98528.55;1674673;84;21740;-62
2021/01/12 00:34:56;;;;;;;21.27;14.53;;;;;;;-1.73;94.24;98522.99;1636569;85;21673;-62
2021/01/12 00:37:26;;;;;;;19.27;13.15;;;;;;;-1.74;94.13;98520.00;1646291;87;21307;-62
2021/01/12 00:39:54;;;;;;;19.02;13.48;;;;;;;-1.74;94.20;98520.44;1636095;85;21186;-62
2021/01/12 00:42:22;;;;;;;20.48;13.53;;;;;;;-1.74;94.26;98513.61;1645921;85;21271;-62
2021/01/12 00:44:50;;;;;;;20.70;14.98;;;;;;;-1.72;94.34;98513.16;1634717;85;21234;-62
2021/01/12 00:47:19;;;;;;;19.95;14.45;;;;;;;-1.69;94.31;98501.58;1649324;85;21564;-62
2021/01/12 00:49:46;;;;;;;19.95;14.73;;;;;;;-1.68;94.34;98500.73;1688414;83;21045;-62
2021/01/12 00:52:13;;;;;;;23.85;14.55;;;;;;;-1.65;94.30;98495.55;1689487;84;21246;-63
2021/01/12 00:54:40;;;;;;;;;;;;;;;-1.66;94.28;98488.73;1689322;84;21211;-63
2021/01/12 00:57:08;;;;;;;21.90;15.15;;;;;;;-1.66;94.27;98490.00;1689888;84;21067;-62
2021/01/12 00:59:35;;;;;;;20.88;14.07;;;;;;;-1.65;94.21;98480.20;1687846;84;21076;-62
2021/01/12 01:02:05;;;;;;;20.85;14.73;;;;;;;-1.66;94.20;98470.81;1689659;84;21658;-62
2021/01/12 01:04:32;;;;;;;18.50;13.98;;;;;;;-1.66;94.20;98477.20;1688693;84;21701;-62
2021/01/12 01:06:59;;;;;;;;;;;;;;;-1.65;94.21;98472.52;1688574;84;21041;-63
2021/01/12 01:09:26;;;;;;;19.67;14.65;;;;;;;-1.64;94.26;98467.80;1687039;84;22832;-62
2021/01/12 01:11:53;;;;;;;18.07;13.53;;;;;;;-1.62;94.29;98454.55;1689778;84;21056;-63
2021/01/12 01:14:22;;;;;;;18.20;14.00;;;;;;;-1.61;94.19;98466.45;1688227;84;21559;-62
2021/01/12 01:16:50;;;;;;;20.77;14.75;;;;;;;-1.62;94.18;98460.94;1689838;83;21159;-62
2021/01/12 01:19:17;;;;;;;19.15;14.28;;;;;;;-1.64;94.08;98451.16;1688063;84;21598;-62
2021/01/12 01:21:49;;;;;;;24.10;14.83;;;;;;;-1.64;94.06;98444.77;1688912;84;21232;-63
2021/01/12 01:24:16;;;;;;;18.75;13.88;;;;;;;-1.64;94.14;98456.28;1693008;84;21215;-63
2021/01/12 01:26:43;;;;;;;19.77;13.72;;;;;;;-1.62;94.21;98449.42;1702012;83;21693;-62
2021/01/12 01:29:10;;;;;;;20.97;14.43;;;;;;;-1.61;94.23;98438.30;1702802;82;21179;-62
2021/01/12 01:31:42;;;;;;;21.27;14.98;;;;;;;-1.60;94.21;98442.57;1702265;84;21566;-62
2021/01/12 01:34:11;;;;;;;20.62;14.63;;;;;;;-1.58;94.18;98433.13;1701911;84;21377;-63
2021/01/12 01:36:38;;;;;;;20.32;15.25;;;;;;;-1.56;94.15;98430.98;1700646;84;21143;-62
2021/01/12 01:39:08;;;;;;;21.87;16.60;;;;;;;-1.59;94.13;98423.77;1703330;82;21725;-62
2021/01/12 01:41:35;;;;;;;22.85;16.17;;;;;;;-1.58;94.11;98410.09;1701947;83;21146;-62
2021/01/12 01:44:03;;;;;;;25.97;16.77;;;;;;;-1.58;94.11;98410.09;1702122;83;21130;-62
2021/01/12 01:46:32;;;;;;;20.27;15.18;;;;;;;-1.59;94.10;98414.81;1702108;84;21379;-62
2021/01/12 01:49:00;;;;;;;23.00;16.77;;;;;;;-1.56;94.18;98409.23;1699831;83;21966;-62
2021/01/12 01:51:27;;;;;;;23.73;16.67;;;;;;;-1.53;94.22;98409.17;1702008;83;21145;-63
2021/01/12 01:53:55;;;;;;;20.70;15.23;;;;;;;-1.54;94.07;98404.91;1702049;84;21238;-61
2021/01/12 01:56:25;;;;;;;;;;;;;;;-1.52;94.18;98414.69;1704471;84;21610;-62
2021/01/12 01:58:52;;;;;;;23.60;15.80;;;;;;;-1.50;94.15;98407.38;1702352;82;21685;-62
2021/01/12 02:01:18;;;;;;;24.00;17.07;;;;;;;-1.48;94.20;98402.25;1701480;83;21155;-62
2021/01/12 02:04:00;;;;;;;21.87;15.38;;;;;;;-1.47;94.13;98386.00;1701987;83;21162;-62
2021/01/12 02:06:32;;;;;;;24.02;17.02;;;;;;;-1.48;94.08;98376.65;1699916;84;21072;-63
2021/01/12 02:09:09;;;;;;;22.85;16.05;;;;;;;-1.47;94.01;98362.96;1702553;82;21611;-62
2021/01/12 02:11:42;;;;;;;19.37;15.25;;;;;;;-1.49;94.01;98359.58;1702160;83;21423;-63
2021/01/12 02:14:16;;;;;;;21.57;14.95;;;;;;;-1.49;94.02;98364.70;1701779;84;21923;-63
2021/01/12 02:16:45;;;;;;;23.90;16.17;;;;;;;-1.49;94.03;98346.78;1704348;82;21060;-63
2021/01/12 02:19:21;;;;;;;22.62;14.53;;;;;;;-1.50;94.03;98356.19;1706104;82;21152;-63
2021/01/12 02:21:51;;;;;;;21.73;14.87;;;;;;;-1.49;94.05;98351.45;1702549;82;21171;-62
2021/01/12 02:24:20;;;;;;;24.87;16.95;;;;;;;-1.47;94.02;98350.16;1715558;83;22209;-62
2021/01/12 02:26:47;;;;;;;21.87;15.43;;;;;;;-1.47;94.04;98345.04;1717104;83;21017;-62
2021/01/12 02:29:14;;;;;;;23.65;15.63;;;;;;;-1.47;94.03;98339.48;1707698;82;21242;-62
2021/01/12 02:31:41;;;;;;;23.02;15.23;;;;;;;-1.45;94.04;98340.74;1708967;82;21246;-62
2021/01/12 02:34:13;;;;;;;21.35;15.10;;;;;;;-1.44;94.04;98332.17;1705382;82;21171;-62
2021/01/12 02:36:41;;;;;;;21.52;14.15;;;;;;;-1.44;93.95;98334.73;1715874;83;21429;-62
2021/01/12 02:39:12;;;;;;;;;;;;;;;-1.43;94.06;98323.61;1717127;83;21543;-62
2021/01/12 02:41:40;;;;;;;22.42;14.58;;;;;;;-1.42;94.01;98317.63;1714356;83;20604;-62
2021/01/12 02:44:23;;;;;;;24.05;15.48;;;;;;;-1.42;93.97;98304.83;1713093;82;21131;-63
2021/01/12 02:46:52;;;;;;;23.70;15.65;;;;;;;-1.43;93.96;98308.25;1703131;83;21186;-62
2021/01/12 02:49:19;;;;;;;25.15;16.23;;;;;;;-1.41;94.08;98316.74;1712078;83;21160;-63
2021/01/12 02:51:46;;;;;;;22.75;14.93;;;;;;;-1.39;94.07;98308.16;1707182;82;21087;-62
2021/01/12 02:54:13;;;;;;;22.05;14.68;;;;;;;-1.38;93.99;98297.47;1708028;82;21720;-62
2021/01/12 02:56:40;;;;;;;19.30;14.87;;;;;;;-1.39;93.92;98288.12;1700853;82;21174;-62
2021/01/12 02:59:08;;;;;;;22.98;14.50;;;;;;;-1.39;93.95;98281.72;1707661;82;21202;-63
2021/01/12 03:01:35;;;;;;;22.30;15.43;;;;;;;-1.39;94.03;98278.71;1708824;82;21222;-63
2021/01/12 03:04:02;;;;;;;20.30;14.13;;;;;;;-1.37;93.98;98273.13;1706578;82;21229;-62
2021/01/12 03:06:30;;;;;;;25.37;16.35;;;;;;;-1.35;94.00;98255.16;1717407;82;21067;-62
2021/01/12 03:08:57;;;;;;;20.37;14.28;;;;;;;-1.35;94.03;98255.16;1718712;83;21190;-63
2021/01/12 03:11:25;;;;;;;20.88;14.98;;;;;;;-1.34;93.83;98241.49;1718018;82;21173;-62
2021/01/12 03:13:52;;;;;;;21.93;14.55;;;;;;;-1.35;93.86;98239.79;1722755;82;21669;-62
2021/01/12 03:16:20;;;;;;;21.65;14.38;;;;;;;-1.40;93.79;98226.25;1703313;82;21143;-62
2021/01/12 03:18:47;;;;;;;;;;;;;;;-1.40;93.84;98218.56;1712813;82;20975;-62
2021/01/12 03:21:15;;;;;;;21.97;14.85;;;;;;;-1.42;93.64;98208.83;1716454;83;20171;-63
2021/01/12 03:23:43;;;;;;;20.60;14.90;;;;;;;-1.46;93.79;98202.08;1713661;83;21163;-62
2021/01/12 03:26:10;;;;;;;24.45;15.78;;;;;;;-1.47;93.83;98200.41;1727320;83;21202;-62
2021/01/12 03:28:37;;;;;;;20.50;14.50;;;;;;;-1.48;93.85;98207.69;1728409;82;21570;-62
2021/01/12 03:31:04;;;;;;;21.33;15.30;;;;;;;-1.47;93.83;98206.80;1728298;83;21251;-62
2021/01/12 03:33:31;;;;;;;25.52;15.43;;;;;;;-1.48;93.86;98200.02;1727873;82;21202;-63
2021/01/12 03:35:58;;;;;;;21.65;15.83;;;;;;;-1.48;93.96;98196.17;1727036;83;21155;-62
2021/01/12 03:38:25;;;;;;;20.15;14.33;;;;;;;-1.62;93.92;98157.66;1727841;83;21847;-62
2021/01/12 03:40:59;;;;;;;20.65;15.20;;;;;;;-1.42;93.94;98184.50;1731691;81;26742;-63
2021/01/12 03:43:27;;;;;;;22.80;15.28;;;;;;;-1.41;93.92;98170.81;1726538;83;21220;-63
2021/01/12 03:45:54;;;;;;;25.37;16.25;;;;;;;-1.41;93.90;98175.93;1729125;82;21139;-63
2021/01/12 03:48:21;;;;;;;22.17;15.05;;;;;;;-1.39;93.98;98169.06;1724510;83;21237;-63
2021/01/12 03:50:49;;;;;;;21.65;14.95;;;;;;;-1.38;93.97;98163.89;1727179;83;21239;-62
2021/01/12 03:53:16;;;;;;;23.47;15.58;;;;;;;-1.35;93.94;98157.86;1727453;83;21218;-63
2021/01/12 03:55:43;;;;;;;22.07;15.78;;;;;;;-1.35;93.88;98156.58;1727628;83;21036;-62
2021/01/12 03:58:10;;;;;;;23.42;16.10;;;;;;;-1.34;93.87;98154.44;1730256;81;21171;-62
2021/01/12 04:00:37;;;;;;;26.05;16.02;;;;;;;-1.34;93.85;98149.31;1727969;83;21198;-62
2021/01/12 04:03:05;;;;;;;23.80;15.98;;;;;;;-1.34;93.87;98142.91;1728101;83;21659;-62
2021/01/12 04:05:32;;;;;;;21.85;15.05;;;;;;;-1.33;93.75;98136.91;1728131;82;21103;-62
2021/01/12 04:08:01;;;;;;;22.87;14.90;;;;;;;-1.31;93.93;98139.00;1727971;83;21639;-62
2021/01/12 04:10:28;;;;;;;19.37;15.43;;;;;;;-1.30;93.87;98140.66;1730222;81;22223;-62
2021/01/12 04:12:55;;;;;;;23.02;15.23;;;;;;;-1.28;93.88;98117.59;1727535;83;21234;-64
2021/01/12 04:15:22;;;;;;;24.05;16.23;;;;;;;-1.28;93.88;98126.11;1727589;83;21779;-62
2021/01/12 04:17:49;;;;;;;23.52;15.15;;;;;;;-1.27;93.89;98122.66;1727832;83;21080;-63
2021/01/12 04:20:16;;;;;;;23.38;14.98;;;;;;;-1.26;93.83;98121.80;1728126;81;21637;-62
2021/01/12 04:22:43;;;;;;;22.05;15.43;;;;;;;-1.27;93.79;98111.14;1728092;82;21159;-62
2021/01/12 04:25:12;;;;;;;22.13;15.32;;;;;;;-1.28;93.79;98105.63;1727629;83;27246;-62
2021/01/12 04:27:39;;;;;;;21.35;15.05;;;;;;;-1.28;93.77;98103.06;1728471;82;21213;-63
2021/01/12 04:30:08;;;;;;;23.80;15.45;;;;;;;-1.27;93.84;98093.22;1727565;83;21151;-63
2021/01/12 04:32:35;;;;;;;20.48;14.38;;;;;;;-1.26;93.82;98094.91;1727718;83;21507;-63
2021/01/12 04:35:02;;;;;;;23.22;15.25;;;;;;;-1.25;93.84;98090.18;1727995;83;21206;-62
2021/01/12 04:37:29;;;;;;;19.75;14.30;;;;;;;-1.24;93.89;98082.89;1727810;82;21570;-63
2021/01/12 04:39:56;;;;;;;24.57;15.58;;;;;;;-1.23;93.89;98080.75;1728061;83;21679;-63
2021/01/12 04:42:23;;;;;;;25.92;15.15;;;;;;;-1.22;93.85;98081.13;1728116;81;21214;-63
2021/01/12 04:44:50;;;;;;;21.87;15.50;;;;;;;-1.21;93.78;98075.56;1728117;82;21024;-62
2021/01/12 04:47:17;;;;;;;22.35;14.55;;;;;;;-1.19;93.91;98071.25;1728424;83;21068;-63
2021/01/12 04:49:44;;;;;;;18.23;14.28;;;;;;;-1.19;93.81;98066.97;1727851;83;21179;-63
2021/01/12 04:52:11;;;;;;;19.85;14.53;;;;;;;-1.18;93.79;98067.36;1728040;83;21203;-62
2021/01/12 04:54:38;;;;;;;22.35;14.20;;;;;;;-1.18;93.71;98064.80;1729010;82;21606;-63
2021/01/12 04:57:05;;;;;;;21.37;14.30;;;;;;;-1.18;93.81;98068.64;1716890;83;21040;-63
2021/01/12 04:59:34;;;;;;;21.80;15.25;;;;;;;-1.18;93.81;98071.20;1727764;83;21181;-62
2021/01/12 05:02:02;;;;;;;21.05;14.80;;;;;;;-1.17;93.76;98068.22;1729065;82;21025;-62
2021/01/12 05:04:29;;;;;;;;;;;;;;;-1.18;93.78;98062.23;1729020;82;21631;-63
2021/01/12 05:06:56;;;;;;;18.87;13.55;;;;;;;-1.21;93.82;98045.67;1728342;83;20222;-62
2021/01/12 05:09:24;;;;;;;19.17;12.82;;;;;;;-1.20;93.88;98047.38;1700758;82;21157;-62
2021/01/12 05:11:57;;;;;;;20.88;15.05;;;;;;;-1.21;93.79;98047.40;1717755;82;21191;-62
2021/01/12 05:14:25;;;;;;;21.45;14.40;;;;;;;-1.23;93.80;98039.77;1728122;82;21569;-63
2021/01/12 05:16:55;;;;;;;19.67;13.53;;;;;;;-1.23;93.84;98032.09;1727998;82;21620;-62
2021/01/12 05:19:26;;;;;;;22.42;14.00;;;;;;;-1.22;93.90;98030.36;1727737;81;21189;-62
2021/01/12 05:22:02;;;;;;;20.23;14.30;;;;;;;-1.20;93.96;98019.20;1727917;83;21084;-62
2021/01/12 05:24:32;;;;;;;20.37;13.30;;;;;;;-1.19;93.90;98014.47;1728003;81;21091;-63
2021/01/12 05:27:08;;;;;;;22.98;13.83;;;;;;;-1.19;93.88;98013.19;1727009;83;21147;-62
2021/01/12 05:29:38;;;;;;;19.37;12.88;;;;;;;-1.19;93.84;98009.80;1728323;82;21168;-62
2021/01/12 05:32:10;;;;;;;17.87;13.90;;;;;;;-1.18;93.94;98007.17;1728261;82;21039;-62
2021/01/12 05:34:38;;;;;;;18.90;13.25;;;;;;;-1.17;93.94;98006.31;1727090;83;21037;-63
2021/01/12 05:37:08;;;;;;;20.52;13.32;;;;;;;-1.15;93.96;98007.11;1728430;82;21106;-62
2021/01/12 05:39:41;;;;;;;15.25;12.07;;;;;;;-1.15;93.89;98007.11;1726023;82;21185;-62
2021/01/12 05:42:11;;;;;;;19.70;13.98;;;;;;;-1.14;93.85;98010.51;1724490;82;21169;-62
2021/01/12 05:44:41;;;;;;;18.35;12.55;;;;;;;-1.16;93.85;98003.30;1727753;82;21175;-63
2021/01/12 05:47:16;;;;;;;15.50;12.30;;;;;;;-1.16;93.88;98007.98;1731686;82;21100;-62
2021/01/12 05:49:45;;;;;;;17.30;13.15;;;;;;;-1.17;93.88;97998.63;1727804;82;21093;-63
2021/01/12 05:52:12;;;;;;;16.75;12.63;;;;;;;-1.17;93.96;97996.06;1728724;83;21048;-62
2021/01/12 05:54:42;;;;;;;;;;;;;;;-1.17;93.96;97990.94;1730685;82;22185;-62
2021/01/12 05:57:09;;;;;;;18.07;12.78;;;;;;;-1.18;93.92;97989.24;1725820;82;20316;-62
2021/01/12 05:59:38;;;;;;;16.23;12.15;;;;;;;-1.18;94.01;97984.13;1728860;82;21147;-62
2021/01/12 06:02:19;;;;;;;14.87;11.78;;;;;;;-1.17;94.00;97985.82;1727599;82;21040;-63
2021/01/12 06:04:51;;;;;;;19.02;12.98;;;;;;;-1.17;94.02;97980.70;1727189;82;21014;-62
2021/01/12 06:07:19;;;;;;;13.98;11.28;;;;;;;-1.20;93.98;97976.95;1726832;82;21211;-62
2021/01/12 06:09:46;;;;;;;;;;;;;;;-1.19;94.04;97974.77;1731271;83;21039;-62
2021/01/12 06:12:17;;;;;;;18.25;12.23;;;;;;;-1.20;94.03;97973.10;1728608;83;20510;-63
2021/01/12 06:14:52;;;;;;;15.08;11.22;;;;;;;-1.19;94.09;97969.65;1728515;83;21001;-62
2021/01/12 06:17:19;;;;;;;15.28;11.50;;;;;;;-1.19;94.03;97967.09;1732752;82;21150;-62
2021/01/12 06:19:49;;;;;;;15.53;10.63;;;;;;;-1.18;94.07;97961.07;1710073;83;21675;-62
2021/01/12 06:22:20;;;;;;;14.90;11.48;;;;;;;-1.17;94.02;97968.34;1728423;82;21561;-62
2021/01/12 06:24:55;;;;;;;17.98;11.03;;;;;;;-1.17;94.06;97955.09;1731428;81;21114;-63
2021/01/12 06:27:28;;;;;;;16.77;11.60;;;;;;;-1.15;94.05;97964.86;1722680;83;21223;-63
2021/01/12 06:30:00;;;;;;;19.40;12.43;;;;;;;-1.15;94.08;97958.45;1725729;82;21014;-62
2021/01/12 06:32:29;;;;;;;16.75;11.78;;;;;;;-1.13;94.02;97972.48;1732278;82;22272;-62
2021/01/12 06:35:00;;;;;;;18.70;12.50;;;;;;;-1.14;94.05;97967.80;1726531;82;21167;-62
2021/01/12 06:37:30;;;;;;;14.95;11.65;;;;;;;-1.13;94.05;97963.06;1709829;83;21056;-62
2021/01/12 06:39:59;;;;;;;17.65;13.18;;;;;;;-1.10;94.04;97968.55;1694576;83;21081;-62
2021/01/12 06:42:29;;;;;;;15.88;11.80;;;;;;;-1.10;94.03;97966.43;1655948;85;21594;-62
2021/01/12 06:44:59;;;;;;;15.05;12.25;;;;;;;-1.09;94.01;97957.85;1673014;85;21064;-62
2021/01/12 06:47:30;;;;;;;15.50;11.20;;;;;;;-1.11;93.92;97964.77;1674045;85;21091;-63
2021/01/12 06:50:18;;;;;;;17.00;12.88;;;;;;;-1.11;93.91;97962.20;1683805;85;21574;-62
2021/01/12 06:52:49;;;;;;;17.25;12.70;;;;;;;-1.13;93.95;97963.06;1662291;85;21048;-62
2021/01/12 06:55:20;;;;;;;15.48;11.70;;;;;;;-1.13;93.97;97969.47;1671299;85;21163;-62
2021/01/12 06:57:54;;;;;;;18.00;13.48;;;;;;;-1.11;93.96;97958.36;1682055;85;21800;-62
2021/01/12 07:00:23;;;;;;;16.17;12.13;;;;;;;-1.14;93.92;97955.00;1674862;85;21185;-62
2021/01/12 07:03:01;;;;;;;17.42;12.93;;;;;;;-1.14;94.00;97965.24;1673867;85;21175;-62
2021/01/12 07:05:43;;;;;;;17.80;11.70;;;;;;;-1.14;94.04;97960.12;1675882;85;21174;-62
2021/01/12 07:08:13;;;;;;;15.88;11.68;;;;;;;-1.15;94.01;97961.02;1673767;85;21214;-62
2021/01/12 07:10:47;;;;;;;16.23;11.00;;;;;;;-1.16;94.11;97954.19;1673233;85;21265;-62
2021/01/12 07:13:16;;;;;;;15.05;11.25;;;;;;;-1.15;94.12;97954.61;1658441;85;21671;-62
2021/01/12 07:15:49;;;;;;;15.18;12.35;;;;;;;-1.13;94.12;97951.55;1674570;85;21163;-62
2021/01/12 07:18:24;;;;;;;20.55;13.83;;;;;;;-1.13;94.05;97943.86;1677714;85;20974;-62
2021/01/12 07:20:51;;;;;;;16.45;11.43;;;;;;;-1.14;94.02;97951.60;1672126;84;21206;-62
2021/01/12 07:23:19;;;;;;;16.07;11.80;;;;;;;-1.14;94.06;97943.92;1672976;85;22633;-63
2021/01/12 07:25:46;;;;;;;18.07;12.82;;;;;;;-1.11;94.11;97950.68;1680723;83;21179;-62
2021/01/12 07:28:20;;;;;;;19.67;11.90;;;;;;;-1.12;94.05;97938.32;1727784;83;21170;-62
2021/01/12 07:30:51;;;;;;;15.72;11.20;;;;;;;-1.10;94.10;97947.22;1730677;82;21763;-63
2021/01/12 07:33:28;;;;;;;17.27;11.83;;;;;;;-1.07;94.08;97942.01;1720214;82;21187;-62
2021/01/12 07:35:59;;;;;;;15.25;11.20;;;;;;;-1.07;94.08;97943.29;1722001;83;22231;-62
2021/01/12 07:38:30;;;;;;;15.95;11.85;;;;;;;-1.06;94.08;97946.27;1727227;83;21540;-62
2021/01/12 07:41:00;;;;;;;16.05;11.25;;;;;;;-1.04;94.05;97944.48;1728693;82;21166;-62
2021/01/12 07:43:28;;;;;;;14.43;10.98;;;;;;;-1.02;94.06;97938.88;1722411;82;21183;-63
2021/01/12 07:45:56;;;;;;;16.17;10.85;;;;;;;-0.99;94.07;97944.74;1707603;84;21131;-62
2021/01/12 07:48:25;;;;;;;19.35;12.10;;;;;;;-0.96;94.01;97933.57;1728343;82;21234;-62
2021/01/12 07:50:53;;;;;;;15.30;11.10;;;;;;;-0.94;93.98;97939.05;1713289;82;21035;-62
2021/01/12 07:53:21;;;;;;;16.85;11.25;;;;;;;-0.93;93.99;97933.02;1727272;82;21448;-62
2021/01/12 07:55:49;;;;;;;13.30;11.00;;;;;;;-0.88;94.01;97935.47;1711939;82;21649;-61
2021/01/12 07:58:22;;;;;;;15.75;10.80;;;;;;;-0.84;93.97;97929.80;1727073;83;21157;-62
2021/01/12 08:00:49;;;;;;;15.03;10.72;;;;;;;-0.82;93.91;97931.88;1710328;83;21234;-63
2021/01/12 08:03:28;;;;;;;14.55;10.82;;;;;;;-0.81;93.90;97929.28;1710270;83;21163;-63
2021/01/12 08:06:02;;;;;;;14.20;10.45;;;;;;;-0.78;93.95;97934.31;1717290;82;21143;-62
2021/01/12 08:08:29;;;;;;;12.33;9.23;;;;;;;-0.74;93.86;97924.35;1728778;82;21146;-63
2021/01/12 08:10:58;;;;;;;13.68;10.23;;;;;;;-0.73;93.93;97928.61;1709861;82;21171;-63
2021/01/12 08:13:25;;;;;;;14.18;10.78;;;;;;;-0.72;93.87;97926.44;1728413;82;24846;-63
2021/01/12 08:15:52;;;;;;;15.78;10.30;;;;;;;-0.71;93.82;97925.54;1712059;82;21111;-64
2021/01/12 08:18:21;;;;;;;12.58;9.38;;;;;;;-0.69;93.82;97931.47;1710361;82;21025;-63
2021/01/12 08:20:54;;;;;;;12.00;9.65;;;;;;;-0.68;93.78;97929.28;1728071;83;21564;-63
2021/01/12 08:23:22;;;;;;;14.03;9.73;;;;;;;-0.68;93.75;97933.13;1675538;85;21095;-63
2021/01/12 08:25:50;;;;;;;13.98;9.90;;;;;;;-0.64;93.90;97930.47;1725176;83;22115;-63
2021/01/12 08:28:17;;;;;;;;;;;;;;;-0.62;93.83;97939.79;1669038;85;21005;-63
2021/01/12 08:30:45;;;;;;;;;;;;;;;-0.59;93.84;97938.86;1713899;83;20489;-63
2021/01/12 08:33:31;;;;;;;12.93;9.75;;;;;;;-0.57;93.89;97946.91;1702115;83;20221;-62
2021/01/12 08:36:16;;;;;;;11.78;9.35;;;;;;;-0.56;93.86;97946.04;1705614;83;22747;-63
2021/01/12 08:38:47;;;;;;;13.72;10.70;;;;;;;-0.56;93.72;97940.05;1698682;83;21686;-63
2021/01/12 08:41:17;;;;;;;12.93;9.45;;;;;;;-0.58;93.78;97952.09;1710593;83;21603;-63
2021/01/12 08:43:46;;;;;;;14.53;9.75;;;;;;;-0.57;93.79;97946.07;1708208;83;21195;-62
2021/01/12 08:46:13;;;;;;;13.70;9.55;;;;;;;-0.52;93.91;97948.05;1707865;83;21172;-62
2021/01/12 08:48:50;;;;;;;11.03;9.33;;;;;;;-0.46;93.97;97945.30;1690011;83;21215;-63
2021/01/12 08:51:19;;;;;;;13.65;9.68;;;;;;;-0.41;93.87;97948.56;1708405;83;21218;-63
2021/01/12 08:56:31;;;;;;;11.20;9.35;;;;;;;-0.31;93.79;97944.83;1835162;77;22807;-62
2021/01/12 08:59:09;;;;;;;13.35;9.38;;;;;;;-0.34;93.69;97944.89;1803957;78;20972;-62
2021/01/12 09:01:38;;;;;;;14.55;10.00;;;;;;;-0.33;93.70;97941.47;1801808;78;21205;-62
2021/01/12 09:04:08;;;;;;;12.03;9.15;;;;;;;-0.28;93.79;97949.86;1800705;78;21044;-61
2021/01/12 09:06:37;;;;;;;11.88;8.23;;;;;;;-0.21;93.81;97941.96;1813629;78;20992;-62
2021/01/12 09:09:11;;;;;;;12.43;9.50;;;;;;;-0.15;93.80;97942.59;1808354;78;21021;-62
2021/01/12 09:11:47;;;;;;;8.90;7.47;;;;;;;-0.13;93.61;97938.25;1805557;78;21859;-62
2021/01/12 09:14:20;;;;;;;11.88;8.98;;;;;;;-0.09;93.64;97940.27;1806875;78;21159;-61
2021/01/12 09:16:48;;;;;;;11.80;9.03;;;;;;;-0.07;93.60;97944.91;1761951;80;21099;-61
2021/01/12 09:19:17;;;;;;;13.85;10.23;;;;;;;-0.06;93.49;97944.02;1767243;80;21092;-61
2021/01/12 09:21:45;;;;;;;13.60;10.03;;;;;;;-0.08;93.49;97948.38;1741606;81;21135;-62
2021/01/12 09:24:18;;;;;;;22.30;16.45;;;;;;;-0.03;93.58;97946.47;1766573;80;21211;-62
2021/01/12 09:26:46;;;;;;;13.10;9.73;;;;;;;-0.02;93.48;97949.45;1761532;80;21150;-62
2021/01/12 09:29:13;;;;;;;13.53;9.10;;;;;;;0.02;93.58;97942.03;1766644;80;21052;-62
2021/01/12 09:31:46;;;;;;;14.98;10.88;;;;;;;0.01;93.46;97921.13;1747984;81;21156;-63
2021/01/12 09:34:23;;;;;;;13.45;10.28;;;;;;;0.01;93.46;97921.13;1767205;80;21061;-63
2021/01/12 09:36:51;;;;;;;13.18;8.48;;;;;;;0.15;93.56;97945.88;1741489;81;21620;-62
2021/01/12 09:39:18;;;;;;;11.15;8.20;;;;;;;0.19;93.42;97942.75;1751861;81;21210;-62
2021/01/12 09:41:45;;;;;;;12.55;9.45;;;;;;;0.24;93.69;97945.17;1773649;80;21059;-63
2021/01/12 09:44:12;;;;;;;10.72;7.75;;;;;;;0.31;93.54;97942.77;1753404;81;21015;-62
2021/01/12 09:46:39;;;;;;;13.48;8.08;;;;;;;0.34;93.56;97950.40;1770221;80;21087;-66
2021/01/12 09:49:08;;;;;;;11.30;8.53;;;;;;;0.38;93.48;97933.98;1755572;80;21689;-63
2021/01/12 09:51:35;;;;;;;10.72;8.30;;;;;;;0.39;93.27;97935.64;1771427;80;21159;-63
2021/01/12 09:54:03;;;;;;;14.63;9.10;;;;;;;0.37;93.26;97937.45;1725744;81;21039;-64
2021/01/12 09:56:30;;;;;;;10.88;8.50;;;;;;;0.40;93.43;97934.77;1748590;81;21001;-65
2021/01/12 09:58:57;;;;;;;13.43;8.53;;;;;;;0.46;93.48;97942.26;1764159;79;21108;-63
2021/01/12 10:01:25;;;;;;;9.50;8.20;;;;;;;0.52;93.38;97933.05;1764714;80;21167;-64
2021/01/12 10:03:53;;;;;;;12.13;9.25;;;;;;;0.59;93.47;97928.09;1764570;79;21399;-63
2021/01/12 10:06:22;;;;;;;14.98;11.25;;;;;;;0.67;93.29;97930.38;1775562;79;21059;-64
2021/01/12 10:08:50;;;;;;;17.17;12.03;;;;;;;0.69;93.18;97925.19;1791576;79;21115;-64
2021/01/12 10:11:18;;;;;;;11.38;7.87;;;;;;;0.78;93.28;97924.84;1765304;81;21582;-64
2021/01/12 10:13:47;;;;;;;13.72;8.25;;;;;;;0.84;93.24;97915.20;1763997;81;21131;-65
2021/01/12 10:16:25;;;;;;;8.70;6.80;;;;;;;0.93;93.24;97916.59;1760743;79;21204;-70
2021/01/12 10:18:53;;;;;;;8.90;6.30;;;;;;;0.97;93.02;97919.42;1761204;80;21053;-66
2021/01/12 10:21:21;;;;;;;8.48;5.62;;;;;;;0.99;93.16;97916.36;1760587;80;21131;-68
2021/01/12 10:23:48;;;;;;;8.53;5.95;;;;;;;0.99;92.79;97916.36;1762792;80;21596;-68
2021/01/12 10:26:19;;;;;;;8.95;6.12;;;;;;;0.99;92.94;97918.93;1778744;79;21096;-69
2021/01/12 10:28:47;;;;;;;7.53;5.67;;;;;;;1.04;93.17;97913.17;1761420;80;21423;-67
2021/01/12 10:31:18;;;;;;;7.87;5.72;;;;;;;1.14;93.08;97916.67;1768305;79;21151;-69
2021/01/12 10:33:44;;;;;;;10.45;6.60;;;;;;;1.16;93.05;97910.58;1763145;79;21131;-69
2021/01/12 10:36:14;;;;;;;14.43;9.78;;;;;;;1.20;92.93;97915.15;1773931;79;21187;-68
2021/01/12 10:38:44;;;;;;;8.55;7.30;;;;;;;1.21;92.83;97916.84;1769898;79;21178;-68
2021/01/12 10:41:13;;;;;;;8.63;6.53;;;;;;;1.22;92.94;97909.51;1772028;79;21204;-69
2021/01/12 10:43:42;;;;;;;7.53;5.35;;;;;;;1.23;92.82;97908.59;1775778;79;21172;-70
2021/01/12 10:46:13;;;;;;;6.95;4.53;;;;;;;1.27;92.93;97905.03;1765773;79;21056;-70
2021/01/12 10:48:40;;;;;;;7.62;4.78;;;;;;;1.23;92.84;97909.47;1761343;80;21059;-70
2021/01/12 10:51:08;;;;;;;6.25;5.10;;;;;;;1.17;92.76;97908.84;1775684;79;21021;-71
2021/01/12 10:53:34;;;;;;;6.45;4.92;;;;;;;1.12;92.84;97901.30;1785204;79;21218;-73
2021/01/12 10:56:02;;;;;;;11.43;6.60;;;;;;;1.14;93.01;97903.82;1737711;81;21031;-73
2021/01/12 10:58:29;;;;;;;7.70;5.28;;;;;;;1.16;92.96;97902.87;1737453;81;21045;-71
2021/01/12 11:00:56;;;;;;;7.90;5.60;;;;;;;1.19;92.93;97899.34;1735154;81;21090;-70
2021/01/12 11:03:24;;;;;;;9.75;6.65;;;;;;;1.20;92.99;97897.16;1720405;83;21216;-72
2021/01/12 11:05:53;;;;;;;;;;;;;;;1.24;93.03;97898.72;1749246;81;21103;-71
2021/01/12 11:08:23;;;;;;;6.62;5.55;;;;;;;1.27;92.94;97898.60;1715324;81;20639;-70
2021/01/12 11:10:50;;;;;;;9.75;6.50;;;;;;;1.26;92.87;97899.48;1725323;83;21017;-74
2021/01/12 11:15:58;;;;;;;8.18;4.15;;;;;;;1.41;93.06;97904.50;1846170;76;22889;-73
2021/01/12 11:18:27;;;;;;;6.75;4.78;;;;;;;1.39;93.04;97901.97;1835617;77;21642;-73
2021/01/12 11:20:54;;;;;;;4.90;3.83;;;;;;;1.44;93.23;97905.20;1801406;77;22261;-73
2021/01/12 11:23:22;;;;;;;8.13;5.53;;;;;;;1.43;92.95;97902.25;1802382;77;21080;-71
2021/01/12 11:25:49;;;;;;;7.72;4.92;;;;;;;1.37;92.78;97902.47;1814794;77;20997;-73
2021/01/12 11:28:16;;;;;;;5.00;4.03;;;;;;;1.34;92.68;97906.45;1819931;77;20994;-73
2021/01/12 11:30:43;;;;;;;5.35;4.10;;;;;;;1.32;92.83;97902.67;1810615;78;21593;-73
2021/01/12 11:33:10;;;;;;;4.95;4.20;;;;;;;1.33;93.04;97904.79;1814028;77;21376;-73
2021/01/12 11:35:38;;;;;;;4.87;3.90;;;;;;;1.34;92.97;97896.16;1806744;77;21586;-73
2021/01/12 11:38:05;;;;;;;5.67;4.33;;;;;;;1.40;93.05;97894.66;1803878;78;20976;-72
2021/01/12 11:40:34;;;;;;;6.90;5.05;;;;;;;1.39;92.75;97891.69;1818297;77;21378;-73